Time;durP1;ratioP1;P1;durP2;ratioP2;P2;SDS_P1;SDS_P2;PMS_P1;PMS_P2;Temp;Humidity;BMP_temperature;BMP_pressure;BME280_temperature;BME280_humidity;BME280_pressure;Samples;Min_cycle;Max_cycle;Signal;HPM_P1;HPM_P2
2022/01/09 00:01:37;;;;;;;8.13;4.82;;;;;;;;;;5129809;27;20077;-65
2022/01/09 00:04:03;;;;;;;9.30;5.47;;;;;;;;;;5130019;27;20062;-65
2022/01/09 00:06:29;;;;;;;11.13;5.93;;;;;;;;;;5130025;27;21606;-65
2022/01/09 00:08:56;;;;;;;14.93;6.20;;;;;;;;;;5130821;27;20048;-65
2022/01/09 00:11:26;;;;;;;11.93;7.25;;;;;;;;;;5144933;27;20517;-65
2022/01/09 00:13:53;;;;;;;17.60;7.72;;;;;;;;;;5150947;27;20105;-65
2022/01/09 00:16:20;;;;;;;15.20;7.05;;;;;;;;;;5143908;27;20509;-65
2022/01/09 00:18:47;;;;;;;19.48;7.13;;;;;;;;;;5151175;27;20490;-65
2022/01/09 00:21:13;;;;;;;14.52;4.78;;;;;;;;;;5140613;27;20053;-65
2022/01/09 00:23:41;;;;;;;16.35;4.40;;;;;;;;;;5150449;27;20142;-65
2022/01/09 00:26:08;;;;;;;12.38;3.00;;;;;;;;;;5149829;27;20054;-66
2022/01/09 00:28:34;;;;;;;21.45;3.17;;;;;;;;;;5128092;27;20055;-65
2022/01/09 00:31:01;;;;;;;17.63;2.78;;;;;;;;;;5135786;27;20108;-66
2022/01/09 00:33:27;;;;;;;23.27;2.70;;;;;;;;;;5137633;27;20048;-65
2022/01/09 00:35:54;;;;;;;22.00;3.17;;;;;;;;;;5147487;27;20062;-66
2022/01/09 00:38:20;;;;;;;21.73;3.17;;;;;;;;;;5130562;27;20051;-65
2022/01/09 00:40:47;;;;;;;27.58;3.95;;;;;;;;;;5129671;27;20055;-66
2022/01/09 00:43:13;;;;;;;34.45;4.03;;;;;;;;;;5129675;27;20619;-65
2022/01/09 00:45:40;;;;;;;23.67;3.30;;;;;;;;;;5129285;27;20465;-65
2022/01/09 00:48:07;;;;;;;29.65;3.83;;;;;;;;;;5130060;27;20058;-66
2022/01/09 00:50:36;;;;;;;29.40;4.10;;;;;;;;;;5129772;27;20055;-66
2022/01/09 00:53:03;;;;;;;36.70;4.28;;;;;;;;;;5138167;27;20047;-66
2022/01/09 00:55:29;;;;;;;30.00;4.07;;;;;;;;;;5137184;27;20052;-66
2022/01/09 00:57:55;;;;;;;27.25;4.07;;;;;;;;;;5129178;27;20051;-66
2022/01/09 01:00:22;;;;;;;42.22;4.68;;;;;;;;;;5129010;27;20052;-66
2022/01/09 01:02:49;;;;;;;39.90;5.68;;;;;;;;;;5140563;27;20082;-66
2022/01/09 01:05:15;;;;;;;37.35;4.47;;;;;;;;;;5141384;27;20059;-66
2022/01/09 01:07:42;;;;;;;35.35;4.60;;;;;;;;;;5129620;27;20052;-66
2022/01/09 01:10:09;;;;;;;35.00;4.65;;;;;;;;;;5148011;27;20193;-66
2022/01/09 01:12:36;;;;;;;38.97;4.75;;;;;;;;;;5145552;27;20479;-66
2022/01/09 01:15:03;;;;;;;41.22;4.45;;;;;;;;;;5141345;27;20456;-66
2022/01/09 01:17:30;;;;;;;37.97;5.45;;;;;;;;;;5145127;27;20073;-65
2022/01/09 01:19:56;;;;;;;44.55;5.80;;;;;;;;;;5147900;27;20058;-65
2022/01/09 01:22:27;;;;;;;40.38;5.05;;;;;;;;;;5129675;27;20047;-65
2022/01/09 01:24:56;;;;;;;40.83;4.97;;;;;;;;;;5130138;27;20143;-66
2022/01/09 01:27:22;;;;;;;27.50;5.20;;;;;;;;;;5129178;27;20058;-66
2022/01/09 01:29:48;;;;;;;39.25;4.65;;;;;;;;;;5129562;27;20086;-67
2022/01/09 01:32:15;;;;;;;37.40;5.50;;;;;;;;;;5132488;27;20561;-66
2022/01/09 01:34:41;;;;;;;33.05;4.55;;;;;;;;;;5150276;27;20569;-66
2022/01/09 01:37:08;;;;;;;32.42;5.07;;;;;;;;;;5150236;27;20051;-66
2022/01/09 01:39:34;;;;;;;35.45;4.82;;;;;;;;;;5149306;27;20055;-66
2022/01/09 01:42:00;;;;;;;39.30;5.10;;;;;;;;;;5149354;27;20484;-66
2022/01/09 01:44:37;;;;;;;34.10;4.43;;;;;;;;;;5150080;27;20464;-66
2022/01/09 01:47:04;;;;;;;44.07;4.80;;;;;;;;;;5131183;27;20052;-66
2022/01/09 01:49:31;;;;;;;37.83;4.78;;;;;;;;;;5133040;27;20093;-66
2022/01/09 01:51:58;;;;;;;36.97;5.10;;;;;;;;;;5142178;27;20086;-66
2022/01/09 01:54:25;;;;;;;35.65;4.53;;;;;;;;;;5143637;27;20130;-66
2022/01/09 01:56:52;;;;;;;36.95;4.93;;;;;;;;;;5133083;27;20151;-66
2022/01/09 01:59:18;;;;;;;29.33;4.50;;;;;;;;;;5149675;27;20093;-66
2022/01/09 02:01:44;;;;;;;36.50;4.53;;;;;;;;;;5130678;27;20056;-66
2022/01/09 02:04:11;;;;;;;28.70;4.75;;;;;;;;;;5127010;27;20517;-66
2022/01/09 02:06:37;;;;;;;29.70;5.32;;;;;;;;;;5132879;27;20058;-66
2022/01/09 02:09:04;;;;;;;30.52;4.30;;;;;;;;;;5148829;27;20051;-66
2022/01/09 02:11:30;;;;;;;35.22;5.45;;;;;;;;;;5136474;27;20128;-66
2022/01/09 02:13:57;;;;;;;39.40;4.60;;;;;;;;;;5145399;27;20057;-65
2022/01/09 02:16:24;;;;;;;38.50;4.93;;;;;;;;;;5143541;27;20063;-66
2022/01/09 02:18:51;;;;;;;39.63;5.32;;;;;;;;;;5137759;27;20100;-65
2022/01/09 02:21:18;;;;;;;47.22;5.38;;;;;;;;;;5132763;27;20052;-66
2022/01/09 02:23:46;;;;;;;36.55;4.43;;;;;;;;;;5148205;27;20051;-66
2022/01/09 02:26:12;;;;;;;;;;;;;;;;;;5140344;27;20052;-66
2022/01/09 02:28:39;;;;;;;40.88;5.20;;;;;;;;;;5139960;27;44889;-66
2022/01/09 02:31:05;;;;;;;23.02;4.13;;;;;;;;;;5134220;27;20066;-66
2022/01/09 02:33:31;;;;;;;32.55;3.20;;;;;;;;;;5147463;27;20079;-66
2022/01/09 02:35:58;;;;;;;26.75;4.18;;;;;;;;;;5146165;27;20077;-66
2022/01/09 02:38:24;;;;;;;36.60;4.78;;;;;;;;;;5133006;27;20139;-66
2022/01/09 02:40:51;;;;;;;45.30;5.13;;;;;;;;;;5141620;27;20048;-66
2022/01/09 02:43:18;;;;;;;29.25;4.55;;;;;;;;;;5151735;27;20059;-65
2022/01/09 02:45:46;;;;;;;25.90;3.40;;;;;;;;;;5146215;27;20124;-68
2022/01/09 02:48:13;;;;;;;30.83;4.85;;;;;;;;;;5132542;27;20055;-65
2022/01/09 02:50:44;;;;;;;33.65;3.78;;;;;;;;;;5135355;27;20047;-66
2022/01/09 02:53:16;;;;;;;29.38;4.38;;;;;;;;;;5142518;27;20061;-67
2022/01/09 02:55:43;;;;;;;27.33;4.55;;;;;;;;;;5144706;27;21224;-66
2022/01/09 02:58:10;;;;;;;27.48;3.75;;;;;;;;;;5143874;27;20053;-66
2022/01/09 03:00:37;;;;;;;50.55;5.13;;;;;;;;;;5138422;27;20882;-66
2022/01/09 03:03:04;;;;;;;25.17;4.07;;;;;;;;;;5152753;27;20055;-65
2022/01/09 03:05:31;;;;;;;23.88;4.45;;;;;;;;;;5144190;27;20490;-66
2022/01/09 03:07:58;;;;;;;31.55;5.00;;;;;;;;;;5132013;27;20143;-66
2022/01/09 03:10:24;;;;;;;25.05;3.45;;;;;;;;;;5148994;27;20569;-66
2022/01/09 03:12:51;;;;;;;24.35;3.35;;;;;;;;;;5150146;27;20527;-66
2022/01/09 03:15:18;;;;;;;28.52;4.43;;;;;;;;;;5131222;27;20097;-65
2022/01/09 03:17:44;;;;;;;19.08;3.30;;;;;;;;;;5131335;27;20051;-66
2022/01/09 03:20:15;;;;;;;34.45;3.88;;;;;;;;;;5131009;27;20047;-66
2022/01/09 03:22:42;;;;;;;29.85;3.45;;;;;;;;;;5152339;27;20054;-66
2022/01/09 03:25:09;;;;;;;23.15;3.35;;;;;;;;;;5151315;27;20142;-67
2022/01/09 03:27:38;;;;;;;20.73;2.83;;;;;;;;;;5136918;27;20050;-66
2022/01/09 03:30:07;;;;;;;25.77;3.88;;;;;;;;;;5141625;27;20055;-66
2022/01/09 03:32:37;;;;;;;21.20;4.07;;;;;;;;;;5142558;27;20101;-66
2022/01/09 03:35:05;;;;;;;28.10;3.30;;;;;;;;;;5152174;27;20112;-66
2022/01/09 03:37:31;;;;;;;26.40;4.63;;;;;;;;;;5132446;27;20043;-66
2022/01/09 03:39:57;;;;;;;22.35;2.75;;;;;;;;;;5130211;27;20313;-66
2022/01/09 03:42:24;;;;;;;26.40;2.97;;;;;;;;;;5145562;27;20051;-66
2022/01/09 03:44:50;;;;;;;27.95;3.95;;;;;;;;;;5129302;27;20047;-66
2022/01/09 03:47:16;;;;;;;24.63;3.33;;;;;;;;;;5128775;27;20051;-66
2022/01/09 03:49:44;;;;;;;24.30;3.03;;;;;;;;;;5142678;27;20091;-66
2022/01/09 03:52:11;;;;;;;22.98;3.53;;;;;;;;;;5135971;27;20058;-66
2022/01/09 03:54:38;;;;;;;24.10;2.53;;;;;;;;;;5143507;27;20055;-66
2022/01/09 03:57:05;;;;;;;18.23;3.13;;;;;;;;;;5131560;27;20689;-65
2022/01/09 03:59:31;;;;;;;29.08;3.78;;;;;;;;;;5143155;27;20531;-66
2022/01/09 04:01:58;;;;;;;27.50;3.60;;;;;;;;;;5136121;27;20047;-66
2022/01/09 04:04:24;;;;;;;18.55;2.78;;;;;;;;;;5129383;27;20043;-66
2022/01/09 04:06:50;;;;;;;13.63;2.83;;;;;;;;;;5138731;27;20051;-66
2022/01/09 04:09:27;;;;;;;25.52;3.92;;;;;;;;;;5144748;27;20051;-66
2022/01/09 04:12:03;;;;;;;18.25;3.03;;;;;;;;;;5130626;27;20052;-66
2022/01/09 04:14:29;;;;;;;18.05;3.08;;;;;;;;;;5129829;27;20047;-66
2022/01/09 04:16:56;;;;;;;21.10;2.80;;;;;;;;;;5129866;27;20047;-66
2022/01/09 04:19:22;;;;;;;23.05;3.33;;;;;;;;;;5144297;27;20059;-67
2022/01/09 04:21:48;;;;;;;25.25;2.95;;;;;;;;;;5135973;27;20180;-65
2022/01/09 04:24:15;;;;;;;27.77;3.65;;;;;;;;;;5129107;27;20527;-65
2022/01/09 04:26:41;;;;;;;17.17;2.40;;;;;;;;;;5129664;27;20054;-65
2022/01/09 04:29:07;;;;;;;27.00;3.33;;;;;;;;;;5137290;27;20057;-65
2022/01/09 04:31:33;;;;;;;16.05;2.67;;;;;;;;;;5128426;27;20520;-65
2022/01/09 04:34:00;;;;;;;23.77;2.80;;;;;;;;;;5145259;27;20146;-65
2022/01/09 04:36:26;;;;;;;21.80;2.80;;;;;;;;;;5149152;27;20051;-67
2022/01/09 04:38:54;;;;;;;25.73;3.42;;;;;;;;;;5150007;27;20580;-66
2022/01/09 04:41:20;;;;;;;19.42;3.08;;;;;;;;;;5150051;27;20065;-67
2022/01/09 04:43:48;;;;;;;16.98;2.63;;;;;;;;;;5150448;27;20514;-67
2022/01/09 04:46:21;;;;;;;20.38;3.15;;;;;;;;;;5139817;27;20052;-67
2022/01/09 04:48:51;;;;;;;17.90;3.38;;;;;;;;;;5130630;27;20056;-67
2022/01/09 04:51:17;;;;;;;18.23;3.00;;;;;;;;;;5139746;27;20047;-67
2022/01/09 04:53:43;;;;;;;25.13;3.00;;;;;;;;;;5142375;27;20047;-67
2022/01/09 04:56:10;;;;;;;24.45;3.40;;;;;;;;;;5148731;27;20047;-67
2022/01/09 04:58:36;;;;;;;19.83;2.85;;;;;;;;;;5145244;27;20143;-67
2022/01/09 05:01:02;;;;;;;20.05;3.03;;;;;;;;;;5133447;27;20055;-67
2022/01/09 05:03:29;;;;;;;15.38;2.30;;;;;;;;;;5142324;27;20142;-67
2022/01/09 05:05:56;;;;;;;19.52;2.53;;;;;;;;;;5144277;27;20152;-67
2022/01/09 05:08:22;;;;;;;14.75;2.72;;;;;;;;;;5147678;27;20051;-67
2022/01/09 05:10:48;;;;;;;23.10;4.85;;;;;;;;;;5128898;27;20043;-67
2022/01/09 05:13:14;;;;;;;19.65;2.72;;;;;;;;;;5127949;27;20180;-67
2022/01/09 05:15:41;;;;;;;18.77;2.42;;;;;;;;;;5129567;27;20052;-67
2022/01/09 05:18:13;;;;;;;16.17;2.75;;;;;;;;;;5142906;27;20047;-67
2022/01/09 05:20:40;;;;;;;15.70;2.78;;;;;;;;;;5148585;27;20058;-67
2022/01/09 05:23:06;;;;;;;19.45;3.58;;;;;;;;;;5149826;27;20055;-67
2022/01/09 05:25:33;;;;;;;21.92;2.80;;;;;;;;;;5143867;27;20566;-67
2022/01/09 05:27:59;;;;;;;26.65;4.10;;;;;;;;;;5129281;27;20138;-67
2022/01/09 05:30:25;;;;;;;17.73;3.20;;;;;;;;;;5130231;27;20052;-67
2022/01/09 05:32:52;;;;;;;24.30;2.80;;;;;;;;;;5134470;27;20043;-67
2022/01/09 05:35:18;;;;;;;21.95;3.20;;;;;;;;;;5133250;27;20044;-67
2022/01/09 05:37:45;;;;;;;21.85;2.75;;;;;;;;;;5141391;27;20940;-67
2022/01/09 05:40:11;;;;;;;26.20;2.97;;;;;;;;;;5135629;27;20503;-66
2022/01/09 05:42:38;;;;;;;18.85;2.67;;;;;;;;;;5128704;27;20539;-67
2022/01/09 05:45:07;;;;;;;21.08;2.75;;;;;;;;;;5129187;27;20087;-67
2022/01/09 05:47:33;;;;;;;26.77;3.63;;;;;;;;;;5128336;27;20134;-67
2022/01/09 05:50:00;;;;;;;21.13;2.90;;;;;;;;;;5138396;27;20139;-67
2022/01/09 05:52:26;;;;;;;17.90;2.38;;;;;;;;;;5146089;27;20057;-67
2022/01/09 05:54:52;;;;;;;30.20;2.95;;;;;;;;;;5142709;27;20051;-67
2022/01/09 05:57:18;;;;;;;22.63;3.10;;;;;;;;;;5142329;27;20055;-67
2022/01/09 05:59:45;;;;;;;12.30;2.10;;;;;;;;;;5139610;27;20407;-67
2022/01/09 06:02:11;;;;;;;17.63;2.33;;;;;;;;;;5136676;27;20059;-67
2022/01/09 06:04:37;;;;;;;20.13;3.38;;;;;;;;;;5149902;27;20086;-67
2022/01/09 06:07:04;;;;;;;18.48;2.55;;;;;;;;;;5132651;27;20573;-67
2022/01/09 06:09:31;;;;;;;14.13;2.28;;;;;;;;;;5142943;27;20051;-67
2022/01/09 06:11:57;;;;;;;18.10;2.38;;;;;;;;;;5136097;27;20058;-67
2022/01/09 06:14:23;;;;;;;21.92;2.88;;;;;;;;;;5152970;27;20521;-67
2022/01/09 06:16:50;;;;;;;19.08;2.47;;;;;;;;;;5152060;27;20058;-67
2022/01/09 06:19:16;;;;;;;19.83;2.65;;;;;;;;;;5146546;27;20128;-67
2022/01/09 06:21:42;;;;;;;21.38;2.25;;;;;;;;;;5140721;27;20106;-67
2022/01/09 06:24:09;;;;;;;21.13;2.50;;;;;;;;;;5132019;27;20043;-67
2022/01/09 06:26:35;;;;;;;17.00;2.28;;;;;;;;;;5132337;27;20066;-67
2022/01/09 06:29:01;;;;;;;10.63;2.00;;;;;;;;;;5132953;27;20052;-67
2022/01/09 06:31:28;;;;;;;14.30;2.70;;;;;;;;;;5134770;27;20154;-67
2022/01/09 06:33:54;;;;;;;22.30;2.65;;;;;;;;;;5142104;27;20506;-67
2022/01/09 06:36:20;;;;;;;18.58;3.42;;;;;;;;;;5132382;27;20056;-67
2022/01/09 06:38:47;;;;;;;19.95;2.83;;;;;;;;;;5148951;27;20104;-67
2022/01/09 06:41:13;;;;;;;14.60;2.78;;;;;;;;;;5145366;27;20527;-66
2022/01/09 06:43:40;;;;;;;16.02;2.75;;;;;;;;;;5151753;27;20057;-67
2022/01/09 06:46:07;;;;;;;11.98;2.35;;;;;;;;;;5142983;27;20050;-67
2022/01/09 06:48:33;;;;;;;14.68;2.25;;;;;;;;;;5132059;27;20043;-67
2022/01/09 06:50:59;;;;;;;5.45;1.60;;;;;;;;;;5149004;27;20054;-67
2022/01/09 06:53:26;;;;;;;18.40;2.78;;;;;;;;;;5145164;27;20055;-67
2022/01/09 06:55:52;;;;;;;11.90;1.95;;;;;;;;;;5144930;27;20051;-67
2022/01/09 06:58:21;;;;;;;16.30;2.17;;;;;;;;;;5137244;27;20061;-67
2022/01/09 07:00:47;;;;;;;;;;;;;;;;;;5145021;27;20512;-67
2022/01/09 07:03:14;;;;;;;6.85;1.67;;;;;;;;;;5133258;27;44722;-67
2022/01/09 07:05:40;;;;;;;17.27;2.03;;;;;;;;;;5142407;27;20051;-67
2022/01/09 07:08:09;;;;;;;11.05;2.17;;;;;;;;;;5142623;27;20067;-67
2022/01/09 07:10:36;;;;;;;13.43;1.98;;;;;;;;;;5132390;27;20150;-67
2022/01/09 07:13:03;;;;;;;12.65;1.83;;;;;;;;;;5141879;27;20103;-67
2022/01/09 07:15:29;;;;;;;11.23;1.80;;;;;;;;;;5148108;27;20098;-67
2022/01/09 07:17:55;;;;;;;9.38;1.98;;;;;;;;;;5113173;27;20047;-67
2022/01/09 07:20:22;;;;;;;10.80;2.00;;;;;;;;;;5130813;27;20189;-67
2022/01/09 07:22:48;;;;;;;11.68;2.15;;;;;;;;;;5135073;27;20112;-67
2022/01/09 07:25:15;;;;;;;10.50;2.10;;;;;;;;;;5143609;27;20047;-67
2022/01/09 07:27:41;;;;;;;12.88;1.75;;;;;;;;;;5130906;27;20062;-67
2022/01/09 07:30:08;;;;;;;10.77;2.03;;;;;;;;;;5130700;27;20075;-67
2022/01/09 07:32:36;;;;;;;11.55;2.80;;;;;;;;;;5147265;27;20506;-67
2022/01/09 07:35:03;;;;;;;;;;;;;;;;;;5135639;27;20599;-67
2022/01/09 07:37:30;;;;;;;8.98;2.20;;;;;;;;;;5131514;27;44428;-67
2022/01/09 07:39:57;;;;;;;8.13;1.90;;;;;;;;;;5146282;27;20047;-67
2022/01/09 07:42:24;;;;;;;12.38;2.00;;;;;;;;;;5134761;27;20047;-67
2022/01/09 07:44:51;;;;;;;18.67;2.15;;;;;;;;;;5148287;27;20059;-68
2022/01/09 07:47:17;;;;;;;7.55;1.73;;;;;;;;;;5135644;27;20138;-68
2022/01/09 07:49:43;;;;;;;10.90;1.83;;;;;;;;;;5136273;27;20531;-67
2022/01/09 07:52:10;;;;;;;10.60;1.92;;;;;;;;;;5130826;27;20048;-68
2022/01/09 07:54:36;;;;;;;11.25;1.83;;;;;;;;;;5133080;27;20046;-68
2022/01/09 07:57:02;;;;;;;15.80;2.25;;;;;;;;;;5145814;27;20055;-68
2022/01/09 07:59:29;;;;;;;10.93;1.73;;;;;;;;;;5129980;27;20134;-68
2022/01/09 08:01:55;;;;;;;7.18;1.75;;;;;;;;;;5130603;27;20051;-68
2022/01/09 08:04:22;;;;;;;11.30;2.25;;;;;;;;;;5130842;27;20509;-68
2022/01/09 08:06:48;;;;;;;10.35;1.88;;;;;;;;;;5141038;27;20047;-68
2022/01/09 08:09:14;;;;;;;8.20;1.50;;;;;;;;;;5132694;27;20052;-68
2022/01/09 08:11:41;;;;;;;15.30;2.13;;;;;;;;;;5130846;27;20073;-68
2022/01/09 08:14:07;;;;;;;16.80;2.25;;;;;;;;;;5139851;27;20146;-66
2022/01/09 08:16:33;;;;;;;9.38;2.17;;;;;;;;;;5142674;27;20047;-66
2022/01/09 08:19:00;;;;;;;9.18;2.25;;;;;;;;;;5139357;27;20464;-67
2022/01/09 08:21:26;;;;;;;15.68;1.85;;;;;;;;;;5133953;27;20043;-66
2022/01/09 08:23:52;;;;;;;15.38;2.40;;;;;;;;;;5140345;27;20051;-66
2022/01/09 08:26:19;;;;;;;10.95;2.15;;;;;;;;;;5135221;27;20930;-66
2022/01/09 08:28:48;;;;;;;13.02;2.45;;;;;;;;;;5129554;27;20085;-66
2022/01/09 08:31:15;;;;;;;21.27;2.45;;;;;;;;;;5129547;27;20138;-67
2022/01/09 08:33:42;;;;;;;16.45;2.78;;;;;;;;;;5144746;27;20612;-66
2022/01/09 08:36:08;;;;;;;11.15;2.17;;;;;;;;;;5129351;27;20047;-66
2022/01/09 08:38:34;;;;;;;11.95;2.10;;;;;;;;;;5130619;27;20060;-66
2022/01/09 08:41:01;;;;;;;13.57;2.60;;;;;;;;;;5140361;27;20274;-67
2022/01/09 08:43:29;;;;;;;13.10;2.17;;;;;;;;;;5128927;27;20043;-66
2022/01/09 08:45:55;;;;;;;13.43;2.13;;;;;;;;;;5130589;27;20077;-67
2022/01/09 08:48:22;;;;;;;11.45;1.60;;;;;;;;;;5140848;27;20055;-66
2022/01/09 08:50:48;;;;;;;14.07;1.88;;;;;;;;;;5129331;27;20053;-67
2022/01/09 08:53:15;;;;;;;12.25;2.05;;;;;;;;;;5135899;27;20109;-66
2022/01/09 08:55:42;;;;;;;6.68;1.88;;;;;;;;;;5129315;27;20113;-66
2022/01/09 08:58:08;;;;;;;9.35;2.00;;;;;;;;;;5142112;27;20090;-66
2022/01/09 09:00:34;;;;;;;9.05;1.70;;;;;;;;;;5148212;27;20043;-66
2022/01/09 09:03:01;;;;;;;11.75;1.75;;;;;;;;;;5135602;27;20108;-66
2022/01/09 09:05:28;;;;;;;13.52;3.10;;;;;;;;;;5131916;27;20101;-66
2022/01/09 09:07:55;;;;;;;10.52;1.92;;;;;;;;;;5134825;27;20074;-66
2022/01/09 09:10:21;;;;;;;13.95;2.40;;;;;;;;;;5132996;27;20048;-65
2022/01/09 09:12:47;;;;;;;12.57;2.45;;;;;;;;;;5139398;27;20163;-66
2022/01/09 09:15:14;;;;;;;13.68;2.00;;;;;;;;;;5130088;27;20138;-67
2022/01/09 09:17:40;;;;;;;15.77;2.22;;;;;;;;;;5129268;27;20105;-66
2022/01/09 09:20:07;;;;;;;16.48;2.67;;;;;;;;;;5129298;27;20602;-66
2022/01/09 09:22:34;;;;;;;14.02;2.55;;;;;;;;;;5149664;27;20075;-65
2022/01/09 09:25:00;;;;;;;17.00;2.50;;;;;;;;;;5145429;27;20101;-66
2022/01/09 09:27:30;;;;;;;19.13;2.58;;;;;;;;;;5132958;27;20046;-66
2022/01/09 09:29:57;;;;;;;14.70;2.47;;;;;;;;;;5133496;27;20086;-66
2022/01/09 09:32:23;;;;;;;12.23;2.05;;;;;;;;;;5135306;27;20051;-66
2022/01/09 09:34:50;;;;;;;14.43;3.00;;;;;;;;;;5137017;27;20150;-66
2022/01/09 09:37:16;;;;;;;18.00;2.75;;;;;;;;;;5143106;27;20051;-66
2022/01/09 09:39:42;;;;;;;18.38;2.45;;;;;;;;;;5132431;27;20051;-66
2022/01/09 09:42:09;;;;;;;9.68;2.28;;;;;;;;;;5131192;27;20079;-67
2022/01/09 09:44:36;;;;;;;17.80;3.08;;;;;;;;;;5149696;27;20055;-67
2022/01/09 09:47:03;;;;;;;16.25;2.13;;;;;;;;;;5138504;27;20061;-68
2022/01/09 09:49:30;;;;;;;15.82;2.45;;;;;;;;;;5139442;27;20577;-67
2022/01/09 09:51:56;;;;;;;19.17;2.50;;;;;;;;;;5136701;27;20915;-66
2022/01/09 09:54:22;;;;;;;23.08;2.92;;;;;;;;;;5136255;27;20090;-66
2022/01/09 09:56:49;;;;;;;10.55;2.05;;;;;;;;;;5129261;27;20054;-65
2022/01/09 09:59:22;;;;;;;9.52;1.67;;;;;;;;;;5128078;27;20055;-65
2022/01/09 10:01:49;;;;;;;8.02;1.77;;;;;;;;;;5137871;27;20044;-65
2022/01/09 10:04:16;;;;;;;7.97;1.98;;;;;;;;;;5137229;27;20139;-64
2022/01/09 10:06:43;;;;;;;10.30;2.10;;;;;;;;;;5145857;27;20082;-64
2022/01/09 10:09:17;;;;;;;18.70;2.10;;;;;;;;;;5133902;27;20101;-65
2022/01/09 10:11:54;;;;;;;11.60;2.20;;;;;;;;;;5128601;27;20422;-65
2022/01/09 10:14:25;;;;;;;13.45;2.25;;;;;;;;;;5130277;27;20051;-64
2022/01/09 10:17:07;;;;;;;16.92;3.40;;;;;;;;;;5134312;27;20152;-65
2022/01/09 10:19:43;;;;;;;12.57;2.75;;;;;;;;;;5128574;27;20121;-64
2022/01/09 10:22:23;;;;;;;9.98;2.45;;;;;;;;;;5132938;27;20575;-65
2022/01/09 10:24:49;;;;;;;9.85;2.08;;;;;;;;;;5134151;27;20051;-64
2022/01/09 10:27:26;;;;;;;8.93;1.90;;;;;;;;;;5137904;27;20067;-65
2022/01/09 10:29:54;;;;;;;10.32;2.08;;;;;;;;;;5128265;27;20081;-65
2022/01/09 10:32:23;;;;;;;11.27;2.85;;;;;;;;;;5129138;27;20055;-65
2022/01/09 10:35:09;;;;;;;14.02;2.38;;;;;;;;;;5138967;27;20501;-64
2022/01/09 10:37:35;;;;;;;10.15;2.72;;;;;;;;;;5128429;27;20135;-66
2022/01/09 10:40:06;;;;;;;13.57;2.85;;;;;;;;;;5130753;27;20052;-66
2022/01/09 10:42:32;;;;;;;13.13;2.65;;;;;;;;;;5130688;27;20099;-66
2022/01/09 10:45:15;;;;;;;10.63;2.35;;;;;;;;;;5146447;27;20140;-65
2022/01/09 10:47:41;;;;;;;18.17;2.53;;;;;;;;;;5135916;27;20053;-66
2022/01/09 10:50:10;;;;;;;12.00;2.80;;;;;;;;;;5132386;27;20062;-65
2022/01/09 10:52:41;;;;;;;;;;;;;;;;;;5142409;27;20100;-67
2022/01/09 10:55:08;;;;;;;15.73;2.50;;;;;;;;;;5151546;27;44896;-67
2022/01/09 10:57:37;;;;;;;11.57;2.35;;;;;;;;;;5144365;27;20049;-67
2022/01/09 11:00:08;;;;;;;14.70;2.67;;;;;;;;;;5152454;27;20043;-64
2022/01/09 11:02:35;;;;;;;17.20;2.83;;;;;;;;;;5138505;27;20530;-65
2022/01/09 11:05:02;;;;;;;17.42;2.85;;;;;;;;;;5145561;27;20058;-65
2022/01/09 11:07:28;;;;;;;14.50;2.35;;;;;;;;;;5137325;27;20146;-65
2022/01/09 11:09:56;;;;;;;16.98;2.97;;;;;;;;;;5139137;27;20505;-65
2022/01/09 11:12:24;;;;;;;9.20;2.47;;;;;;;;;;5141628;27;20059;-65
2022/01/09 11:14:52;;;;;;;16.65;2.97;;;;;;;;;;5139955;27;20481;-65
2022/01/09 11:17:20;;;;;;;23.13;2.92;;;;;;;;;;5137690;27;20065;-66
2022/01/09 11:19:47;;;;;;;12.40;2.03;;;;;;;;;;5148009;27;20059;-65
2022/01/09 11:22:13;;;;;;;18.42;2.58;;;;;;;;;;5150463;27;20051;-66
2022/01/09 11:24:39;;;;;;;7.25;1.90;;;;;;;;;;5135561;27;20052;-65
2022/01/09 11:27:25;;;;;;;16.10;3.42;;;;;;;;;;5135980;27;20142;-65
2022/01/09 11:30:05;;;;;;;19.95;2.88;;;;;;;;;;5139515;27;20104;-65
2022/01/09 11:32:38;;;;;;;19.63;2.75;;;;;;;;;;5151570;27;20102;-66
2022/01/09 11:35:13;;;;;;;14.52;2.22;;;;;;;;;;5149507;27;20069;-66
2022/01/09 11:37:58;;;;;;;13.48;2.45;;;;;;;;;;5152037;27;20047;-67
2022/01/09 11:40:26;;;;;;;11.32;2.30;;;;;;;;;;5138512;27;20837;-67
2022/01/09 11:43:18;;;;;;;8.03;1.70;;;;;;;;;;5136885;27;20052;-66
2022/01/09 11:45:48;;;;;;;16.65;2.22;;;;;;;;;;5142307;27;20293;-66
2022/01/09 11:48:15;;;;;;;17.35;3.42;;;;;;;;;;5137791;27;20524;-67
2022/01/09 11:51:00;;;;;;;16.10;2.10;;;;;;;;;;5136597;27;20578;-66
2022/01/09 11:53:27;;;;;;;13.65;2.22;;;;;;;;;;5130291;27;20511;-66
2022/01/09 11:55:53;;;;;;;14.00;2.40;;;;;;;;;;5130440;27;20054;-66
2022/01/09 11:58:22;;;;;;;11.50;1.98;;;;;;;;;;5132993;27;20071;-66
2022/01/09 12:00:49;;;;;;;22.17;2.80;;;;;;;;;;5137951;27;20057;-65
2022/01/09 12:03:27;;;;;;;15.05;2.50;;;;;;;;;;5141949;27;20075;-66
2022/01/09 12:06:09;;;;;;;15.93;2.25;;;;;;;;;;5141285;27;20075;-65
2022/01/09 12:08:56;;;;;;;14.13;2.50;;;;;;;;;;5132090;27;20051;-65
2022/01/09 12:11:42;;;;;;;12.60;2.42;;;;;;;;;;5139035;27;20059;-65
2022/01/09 12:14:08;;;;;;;14.75;2.83;;;;;;;;;;5134995;27;20052;-65
2022/01/09 12:16:46;;;;;;;12.50;1.67;;;;;;;;;;5138369;27;20053;-65
2022/01/09 12:19:32;;;;;;;13.27;1.85;;;;;;;;;;5146066;27;20058;-65
2022/01/09 12:21:58;;;;;;;5.68;1.45;;;;;;;;;;5133296;27;20134;-65
2022/01/09 12:24:35;;;;;;;5.63;1.48;;;;;;;;;;5147921;27;20051;-65
2022/01/09 12:27:21;;;;;;;4.43;0.90;;;;;;;;;;5130571;27;20150;-66
2022/01/09 12:29:48;;;;;;;8.93;3.17;;;;;;;;;;5139559;27;20047;-65
2022/01/09 12:32:40;;;;;;;5.57;1.38;;;;;;;;;;5134485;27;20048;-65
2022/01/09 12:35:13;;;;;;;6.57;1.73;;;;;;;;;;5126011;27;20100;-65
2022/01/09 12:37:47;;;;;;;8.15;1.70;;;;;;;;;;5130174;27;20058;-65
2022/01/09 12:40:14;;;;;;;14.73;2.20;;;;;;;;;;5144758;27;20058;-65
2022/01/09 12:42:46;;;;;;;8.55;2.00;;;;;;;;;;5129665;27;20486;-65
2022/01/09 12:45:20;;;;;;;7.28;1.80;;;;;;;;;;5139180;27;20130;-65
2022/01/09 12:47:47;;;;;;;7.28;1.48;;;;;;;;;;5129027;27;20047;-65
2022/01/09 12:50:14;;;;;;;12.05;1.80;;;;;;;;;;5129826;27;20052;-65
2022/01/09 12:52:41;;;;;;;10.65;1.48;;;;;;;;;;5129973;27;20051;-65
2022/01/09 12:55:09;;;;;;;10.18;1.80;;;;;;;;;;5135318;27;20055;-65
2022/01/09 12:57:55;;;;;;;9.15;1.83;;;;;;;;;;5144220;27;20051;-65
2022/01/09 13:00:26;;;;;;;13.05;2.55;;;;;;;;;;5140333;27;20063;-66
2022/01/09 13:02:57;;;;;;;13.57;2.08;;;;;;;;;;5131886;27;20556;-65
2022/01/09 13:05:24;;;;;;;7.90;1.95;;;;;;;;;;5136164;27;20099;-65
2022/01/09 13:07:57;;;;;;;9.85;2.00;;;;;;;;;;5132500;27;20052;-65
2022/01/09 13:10:27;;;;;;;8.82;2.20;;;;;;;;;;5135762;27;20501;-65
2022/01/09 13:13:03;;;;;;;13.13;2.17;;;;;;;;;;5145767;27;20087;-66
2022/01/09 13:15:37;;;;;;;13.60;2.40;;;;;;;;;;5139087;27;20065;-66
2022/01/09 13:18:03;;;;;;;17.67;2.63;;;;;;;;;;5136265;27;20054;-66
2022/01/09 13:20:30;;;;;;;11.32;3.00;;;;;;;;;;5150418;27;20051;-65
2022/01/09 13:23:03;;;;;;;20.08;3.00;;;;;;;;;;5134267;27;20054;-65
2022/01/09 13:25:29;;;;;;;15.35;3.33;;;;;;;;;;5131872;27;20055;-64
2022/01/09 13:27:55;;;;;;;16.85;2.72;;;;;;;;;;5140098;27;20062;-65
2022/01/09 13:30:21;;;;;;;17.13;2.72;;;;;;;;;;5141581;27;20057;-65
2022/01/09 13:32:48;;;;;;;15.43;2.72;;;;;;;;;;5135302;27;20054;-64
2022/01/09 13:35:14;;;;;;;20.65;2.85;;;;;;;;;;5129716;27;20051;-65
2022/01/09 13:37:41;;;;;;;17.77;2.30;;;;;;;;;;5131530;27;20086;-64
2022/01/09 13:40:07;;;;;;;16.10;2.42;;;;;;;;;;5128808;27;20062;-64
2022/01/09 13:42:34;;;;;;;19.58;2.50;;;;;;;;;;5128825;27;20052;-64
2022/01/09 13:45:03;;;;;;;15.35;3.03;;;;;;;;;;5128575;27;20505;-66
2022/01/09 13:47:29;;;;;;;17.20;2.90;;;;;;;;;;5144785;27;20062;-66
2022/01/09 13:49:56;;;;;;;16.25;3.03;;;;;;;;;;5149444;27;20097;-65
2022/01/09 13:52:24;;;;;;;20.27;2.78;;;;;;;;;;5148368;27;20078;-64
2022/01/09 13:55:02;;;;;;;16.50;2.97;;;;;;;;;;5149576;27;20489;-66
2022/01/09 13:57:29;;;;;;;;;;;;;;;;;;5149338;27;20524;-64
2022/01/09 13:59:59;;;;;;;22.90;2.75;;;;;;;;;;5148532;27;44857;-64
2022/01/09 14:02:36;;;;;;;13.25;2.05;;;;;;;;;;5143639;27;20159;-64
2022/01/09 14:05:24;;;;;;;23.95;3.55;;;;;;;;;;5128749;27;20056;-65
2022/01/09 14:07:51;;;;;;;19.38;3.13;;;;;;;;;;5128554;27;20128;-64
2022/01/09 14:10:19;;;;;;;18.83;2.60;;;;;;;;;;5129051;27;20058;-65
2022/01/09 14:12:46;;;;;;;13.97;2.70;;;;;;;;;;5127848;27;20056;-64
2022/01/09 14:15:22;;;;;;;18.02;2.55;;;;;;;;;;5127970;27;20521;-65
2022/01/09 14:17:49;;;;;;;16.85;2.90;;;;;;;;;;5127598;27;20055;-64
2022/01/09 14:20:17;;;;;;;19.35;3.35;;;;;;;;;;5133062;27;20051;-64
2022/01/09 14:23:10;;;;;;;23.25;3.05;;;;;;;;;;5148670;27;20050;-64
2022/01/09 14:25:37;;;;;;;12.23;2.22;;;;;;;;;;5152679;27;20141;-65
2022/01/09 14:28:07;;;;;;;20.30;2.60;;;;;;;;;;5152479;27;20869;-65
2022/01/09 14:30:35;;;;;;;17.42;3.00;;;;;;;;;;5152561;27;20043;-65
2022/01/09 14:33:13;;;;;;;13.03;2.30;;;;;;;;;;5153335;27;20070;-65
2022/01/09 14:35:44;;;;;;;19.20;3.00;;;;;;;;;;5152878;27;20138;-66
2022/01/09 14:38:12;;;;;;;10.15;2.30;;;;;;;;;;5151699;27;20061;-65
2022/01/09 14:40:45;;;;;;;14.20;2.35;;;;;;;;;;5147918;27;20047;-65